sensor_id;sensor_type;location;lat;lon;timestamp;P1;durP1;ratioP1;P2;durP2;ratioP2
31004;SDS011;17676;52.254;4.490;2023-08-06T00:00:24;9.25;;;7.57;;
31004;SDS011;17676;52.254;4.490;2023-08-06T00:02:49;8.30;;;7.53;;
31004;SDS011;17676;52.254;4.490;2023-08-06T00:05:17;11.32;;;7.18;;
31004;SDS011;17676;52.254;4.490;2023-08-06T00:07:49;8.30;;;7.50;;
31004;SDS011;17676;52.254;4.490;2023-08-06T00:10:16;8.57;;;7.75;;
31004;SDS011;17676;52.254;4.490;2023-08-06T00:12:42;9.38;;;8.05;;
31004;SDS011;17676;52.254;4.490;2023-08-06T00:15:08;8.88;;;7.97;;
31004;SDS011;17676;52.254;4.490;2023-08-06T00:17:34;8.63;;;7.72;;
31004;SDS011;17676;52.254;4.490;2023-08-06T00:19:59;8.98;;;7.30;;
31004;SDS011;17676;52.254;4.490;2023-08-06T00:22:33;9.43;;;8.48;;
31004;SDS011;17676;52.254;4.490;2023-08-06T00:25:00;11.77;;;8.40;;
31004;SDS011;17676;52.254;4.490;2023-08-06T00:27:26;10.60;;;7.32;;
31004;SDS011;17676;52.254;4.490;2023-08-06T00:29:52;13.65;;;7.93;;
31004;SDS011;17676;52.254;4.490;2023-08-06T00:32:17;11.65;;;7.70;;
31004;SDS011;17676;52.254;4.490;2023-08-06T00:34:43;14.05;;;7.90;;
31004;SDS011;17676;52.254;4.490;2023-08-06T00:37:08;9.63;;;7.97;;
31004;SDS011;17676;52.254;4.490;2023-08-06T00:39:34;13.45;;;8.05;;
31004;SDS011;17676;52.254;4.490;2023-08-06T00:41:59;9.98;;;7.18;;
31004;SDS011;17676;52.254;4.490;2023-08-06T00:44:25;9.07;;;7.57;;
31004;SDS011;17676;52.254;4.490;2023-08-06T00:46:50;11.70;;;8.18;;
31004;SDS011;17676;52.254;4.490;2023-08-06T00:49:16;14.68;;;8.65;;
31004;SDS011;17676;52.254;4.490;2023-08-06T00:51:42;16.75;;;9.38;;
31004;SDS011;17676;52.254;4.490;2023-08-06T00:54:08;11.93;;;8.90;;
31004;SDS011;17676;52.254;4.490;2023-08-06T00:56:34;10.93;;;9.25;;
31004;SDS011;17676;52.254;4.490;2023-08-06T00:59:01;10.00;;;8.43;;
31004;SDS011;17676;52.254;4.490;2023-08-06T01:01:26;8.93;;;8.05;;
31004;SDS011;17676;52.254;4.490;2023-08-06T01:03:52;9.43;;;8.20;;
31004;SDS011;17676;52.254;4.490;2023-08-06T01:06:19;11.85;;;7.63;;
31004;SDS011;17676;52.254;4.490;2023-08-06T01:09:01;9.43;;;7.60;;
31004;SDS011;17676;52.254;4.490;2023-08-06T01:14:52;7.35;;;6.40;;
31004;SDS011;17676;52.254;4.490;2023-08-06T01:17:25;8.10;;;6.28;;
31004;SDS011;17676;52.254;4.490;2023-08-06T01:19:52;8.18;;;6.57;;
31004;SDS011;17676;52.254;4.490;2023-08-06T01:22:17;12.23;;;5.88;;
31004;SDS011;17676;52.254;4.490;2023-08-06T01:24:44;9.93;;;5.95;;
31004;SDS011;17676;52.254;4.490;2023-08-06T01:27:24;10.48;;;6.38;;
31004;SDS011;17676;52.254;4.490;2023-08-06T01:30:07;9.25;;;6.30;;
31004;SDS011;17676;52.254;4.490;2023-08-06T01:32:38;4.45;;;4.05;;
31004;SDS011;17676;52.254;4.490;2023-08-06T01:35:10;4.28;;;3.05;;
31004;SDS011;17676;52.254;4.490;2023-08-06T01:37:38;3.97;;;3.67;;
31004;SDS011;17676;52.254;4.490;2023-08-06T01:40:06;4.93;;;4.53;;
31004;SDS011;17676;52.254;4.490;2023-08-06T01:42:35;7.30;;;6.60;;
31004;SDS011;17676;52.254;4.490;2023-08-06T01:45:00;13.10;;;7.30;;
31004;SDS011;17676;52.254;4.490;2023-08-06T01:47:26;9.20;;;8.25;;
31004;SDS011;17676;52.254;4.490;2023-08-06T01:49:51;9.98;;;7.53;;
31004;SDS011;17676;52.254;4.490;2023-08-06T01:52:17;8.75;;;7.85;;
31004;SDS011;17676;52.254;4.490;2023-08-06T01:54:42;9.93;;;8.27;;
31004;SDS011;17676;52.254;4.490;2023-08-06T01:57:08;8.75;;;7.95;;
31004;SDS011;17676;52.254;4.490;2023-08-06T01:59:33;8.18;;;7.22;;
31004;SDS011;17676;52.254;4.490;2023-08-06T02:01:59;9.70;;;7.80;;
31004;SDS011;17676;52.254;4.490;2023-08-06T02:04:24;9.50;;;7.95;;
31004;SDS011;17676;52.254;4.490;2023-08-06T02:06:49;10.35;;;7.32;;
31004;SDS011;17676;52.254;4.490;2023-08-06T02:09:15;8.82;;;7.93;;
31004;SDS011;17676;52.254;4.490;2023-08-06T02:11:40;8.70;;;7.90;;
31004;SDS011;17676;52.254;4.490;2023-08-06T02:14:06;8.20;;;7.38;;
31004;SDS011;17676;52.254;4.490;2023-08-06T02:16:31;10.93;;;8.90;;
31004;SDS011;17676;52.254;4.490;2023-08-06T02:18:56;11.65;;;9.40;;
31004;SDS011;17676;52.254;4.490;2023-08-06T02:21:22;14.68;;;10.77;;
31004;SDS011;17676;52.254;4.490;2023-08-06T02:23:47;14.00;;;12.50;;
31004;SDS011;17676;52.254;4.490;2023-08-06T02:26:13;15.15;;;12.90;;
31004;SDS011;17676;52.254;4.490;2023-08-06T02:28:38;13.98;;;12.52;;
31004;SDS011;17676;52.254;4.490;2023-08-06T02:31:03;18.60;;;14.13;;
31004;SDS011;17676;52.254;4.490;2023-08-06T02:33:29;22.13;;;15.38;;
31004;SDS011;17676;52.254;4.490;2023-08-06T02:36:01;19.73;;;16.40;;
31004;SDS011;17676;52.254;4.490;2023-08-06T02:38:28;24.30;;;15.45;;
31004;SDS011;17676;52.254;4.490;2023-08-06T02:40:54;16.10;;;13.75;;
31004;SDS011;17676;52.254;4.490;2023-08-06T02:43:19;16.08;;;14.23;;
31004;SDS011;17676;52.254;4.490;2023-08-06T02:45:44;15.10;;;13.50;;
31004;SDS011;17676;52.254;4.490;2023-08-06T02:48:10;18.13;;;14.43;;
31004;SDS011;17676;52.254;4.490;2023-08-06T02:50:39;17.70;;;13.88;;
31004;SDS011;17676;52.254;4.490;2023-08-06T02:53:05;15.40;;;13.68;;
31004;SDS011;17676;52.254;4.490;2023-08-06T02:55:34;17.48;;;14.60;;
31004;SDS011;17676;52.254;4.490;2023-08-06T02:58:00;15.70;;;14.00;;
31004;SDS011;17676;52.254;4.490;2023-08-06T03:00:26;21.88;;;14.45;;
31004;SDS011;17676;52.254;4.490;2023-08-06T03:02:52;21.70;;;16.55;;
31004;SDS011;17676;52.254;4.490;2023-08-06T03:05:17;22.40;;;17.85;;
31004;SDS011;17676;52.254;4.490;2023-08-06T03:07:43;22.70;;;17.88;;
31004;SDS011;17676;52.254;4.490;2023-08-06T03:10:09;24.65;;;17.65;;
31004;SDS011;17676;52.254;4.490;2023-08-06T03:12:34;21.45;;;16.13;;
31004;SDS011;17676;52.254;4.490;2023-08-06T03:14:59;14.93;;;10.15;;
31004;SDS011;17676;52.254;4.490;2023-08-06T03:17:25;11.30;;;5.60;;
31004;SDS011;17676;52.254;4.490;2023-08-06T03:19:50;7.78;;;4.68;;
31004;SDS011;17676;52.254;4.490;2023-08-06T03:22:16;11.32;;;2.40;;
31004;SDS011;17676;52.254;4.490;2023-08-06T03:24:41;5.28;;;2.65;;
31004;SDS011;17676;52.254;4.490;2023-08-06T03:27:07;12.10;;;2.30;;
31004;SDS011;17676;52.254;4.490;2023-08-06T03:29:32;4.95;;;2.28;;
31004;SDS011;17676;52.254;4.490;2023-08-06T03:31:57;4.22;;;2.13;;
31004;SDS011;17676;52.254;4.490;2023-08-06T03:34:26;2.70;;;1.98;;
31004;SDS011;17676;52.254;4.490;2023-08-06T03:36:51;6.93;;;2.47;;
31004;SDS011;17676;52.254;4.490;2023-08-06T03:39:17;5.50;;;2.33;;
31004;SDS011;17676;52.254;4.490;2023-08-06T03:41:42;6.88;;;2.35;;
31004;SDS011;17676;52.254;4.490;2023-08-06T03:44:10;2.40;;;2.03;;
31004;SDS011;17676;52.254;4.490;2023-08-06T03:46:35;7.47;;;2.50;;
31004;SDS011;17676;52.254;4.490;2023-08-06T03:49:01;3.95;;;2.55;;
31004;SDS011;17676;52.254;4.490;2023-08-06T03:51:26;8.98;;;2.72;;
31004;SDS011;17676;52.254;4.490;2023-08-06T03:53:52;4.00;;;2.42;;
31004;SDS011;17676;52.254;4.490;2023-08-06T03:56:17;5.80;;;2.42;;
31004;SDS011;17676;52.254;4.490;2023-08-06T03:58:43;5.10;;;2.22;;
31004;SDS011;17676;52.254;4.490;2023-08-06T04:01:08;5.72;;;2.88;;
31004;SDS011;17676;52.254;4.490;2023-08-06T04:03:34;6.45;;;2.22;;
31004;SDS011;17676;52.254;4.490;2023-08-06T04:05:59;3.25;;;2.58;;
31004;SDS011;17676;52.254;4.490;2023-08-06T04:08:26;4.90;;;2.72;;
31004;SDS011;17676;52.254;4.490;2023-08-06T04:10:52;4.03;;;2.20;;
31004;SDS011;17676;52.254;4.490;2023-08-06T04:13:18;3.35;;;2.10;;
31004;SDS011;17676;52.254;4.490;2023-08-06T04:15:44;4.00;;;2.33;;
31004;SDS011;17676;52.254;4.490;2023-08-06T04:18:12;4.60;;;2.35;;
31004;SDS011;17676;52.254;4.490;2023-08-06T04:20:46;5.90;;;2.13;;
31004;SDS011;17676;52.254;4.490;2023-08-06T04:23:14;8.18;;;2.33;;
31004;SDS011;17676;52.254;4.490;2023-08-06T04:25:40;7.55;;;2.30;;
31004;SDS011;17676;52.254;4.490;2023-08-06T04:28:05;3.40;;;2.10;;
31004;SDS011;17676;52.254;4.490;2023-08-06T04:30:30;4.75;;;2.25;;
31004;SDS011;17676;52.254;4.490;2023-08-06T04:32:57;7.80;;;2.60;;
31004;SDS011;17676;52.254;4.490;2023-08-06T04:35:25;4.53;;;1.95;;
31004;SDS011;17676;52.254;4.490;2023-08-06T04:37:51;5.50;;;2.53;;
31004;SDS011;17676;52.254;4.490;2023-08-06T04:40:16;4.93;;;2.38;;
31004;SDS011;17676;52.254;4.490;2023-08-06T04:42:42;5.88;;;2.15;;
31004;SDS011;17676;52.254;4.490;2023-08-06T04:45:08;2.30;;;2.00;;
31004;SDS011;17676;52.254;4.490;2023-08-06T04:47:33;5.53;;;2.10;;
31004;SDS011;17676;52.254;4.490;2023-08-06T04:49:59;4.30;;;1.88;;
31004;SDS011;17676;52.254;4.490;2023-08-06T04:52:24;5.28;;;1.50;;
31004;SDS011;17676;52.254;4.490;2023-08-06T04:54:53;2.92;;;1.58;;
31004;SDS011;17676;52.254;4.490;2023-08-06T04:57:21;5.63;;;1.92;;
31004;SDS011;17676;52.254;4.490;2023-08-06T04:59:47;2.00;;;1.38;;
31004;SDS011;17676;52.254;4.490;2023-08-06T05:02:13;3.90;;;1.50;;
31004;SDS011;17676;52.254;4.490;2023-08-06T05:04:38;5.00;;;1.77;;
31004;SDS011;17676;52.254;4.490;2023-08-06T05:07:04;3.85;;;1.48;;
31004;SDS011;17676;52.254;4.490;2023-08-06T05:09:30;2.10;;;1.50;;
31004;SDS011;17676;52.254;4.490;2023-08-06T05:11:56;2.47;;;1.65;;
31004;SDS011;17676;52.254;4.490;2023-08-06T05:14:21;2.70;;;2.03;;
31004;SDS011;17676;52.254;4.490;2023-08-06T05:16:47;2.85;;;1.52;;
31004;SDS011;17676;52.254;4.490;2023-08-06T05:19:13;3.17;;;1.98;;
31004;SDS011;17676;52.254;4.490;2023-08-06T05:21:38;3.90;;;1.90;;
31004;SDS011;17676;52.254;4.490;2023-08-06T05:24:04;3.42;;;2.20;;
31004;SDS011;17676;52.254;4.490;2023-08-06T05:26:29;4.55;;;2.10;;
31004;SDS011;17676;52.254;4.490;2023-08-06T05:28:55;5.15;;;2.30;;
31004;SDS011;17676;52.254;4.490;2023-08-06T05:31:20;4.97;;;2.00;;
31004;SDS011;17676;52.254;4.490;2023-08-06T05:33:46;4.20;;;2.10;;
31004;SDS011;17676;52.254;4.490;2023-08-06T05:36:11;6.35;;;2.25;;
31004;SDS011;17676;52.254;4.490;2023-08-06T05:38:39;9.73;;;2.50;;
31004;SDS011;17676;52.254;4.490;2023-08-06T05:41:04;8.10;;;2.47;;
31004;SDS011;17676;52.254;4.490;2023-08-06T05:43:30;8.10;;;2.78;;
31004;SDS011;17676;52.254;4.490;2023-08-06T05:45:55;8.23;;;2.38;;
31004;SDS011;17676;52.254;4.490;2023-08-06T05:48:21;8.00;;;2.20;;
31004;SDS011;17676;52.254;4.490;2023-08-06T05:50:49;10.48;;;2.53;;
31004;SDS011;17676;52.254;4.490;2023-08-06T05:53:14;8.63;;;2.85;;
31004;SDS011;17676;52.254;4.490;2023-08-06T05:55:40;7.97;;;2.08;;
31004;SDS011;17676;52.254;4.490;2023-08-06T05:58:05;5.72;;;2.05;;
31004;SDS011;17676;52.254;4.490;2023-08-06T06:00:31;6.00;;;1.55;;
31004;SDS011;17676;52.254;4.490;2023-08-06T06:02:56;5.35;;;1.50;;
31004;SDS011;17676;52.254;4.490;2023-08-06T06:05:22;6.93;;;1.58;;
31004;SDS011;17676;52.254;4.490;2023-08-06T06:07:47;6.70;;;1.48;;
31004;SDS011;17676;52.254;4.490;2023-08-06T06:10:13;8.57;;;1.65;;
31004;SDS011;17676;52.254;4.490;2023-08-06T06:12:38;6.65;;;1.17;;
31004;SDS011;17676;52.254;4.490;2023-08-06T06:15:04;7.88;;;1.20;;
31004;SDS011;17676;52.254;4.490;2023-08-06T06:17:30;3.13;;;0.93;;
31004;SDS011;17676;52.254;4.490;2023-08-06T06:19:55;4.03;;;0.73;;
31004;SDS011;17676;52.254;4.490;2023-08-06T06:22:21;3.85;;;0.50;;
31004;SDS011;17676;52.254;4.490;2023-08-06T06:24:46;1.75;;;0.40;;
31004;SDS011;17676;52.254;4.490;2023-08-06T06:27:12;4.43;;;0.40;;
31004;SDS011;17676;52.254;4.490;2023-08-06T06:29:38;3.75;;;0.43;;
31004;SDS011;17676;52.254;4.490;2023-08-06T06:32:04;4.75;;;0.40;;
31004;SDS011;17676;52.254;4.490;2023-08-06T06:34:29;3.60;;;0.40;;
31004;SDS011;17676;52.254;4.490;2023-08-06T06:36:55;3.08;;;0.40;;
31004;SDS011;17676;52.254;4.490;2023-08-06T06:39:20;4.53;;;0.45;;
31004;SDS011;17676;52.254;4.490;2023-08-06T06:41:46;7.53;;;0.52;;
31004;SDS011;17676;52.254;4.490;2023-08-06T06:44:12;2.70;;;0.40;;
31004;SDS011;17676;52.254;4.490;2023-08-06T06:46:38;2.03;;;0.30;;
31004;SDS011;17676;52.254;4.490;2023-08-06T06:49:03;3.70;;;0.30;;
31004;SDS011;17676;52.254;4.490;2023-08-06T06:51:29;5.38;;;0.38;;
31004;SDS011;17676;52.254;4.490;2023-08-06T06:53:56;2.10;;;0.40;;
31004;SDS011;17676;52.254;4.490;2023-08-06T06:56:22;2.83;;;0.30;;
31004;SDS011;17676;52.254;4.490;2023-08-06T06:58:47;10.75;;;0.75;;
31004;SDS011;17676;52.254;4.490;2023-08-06T07:01:13;3.35;;;0.30;;
31004;SDS011;17676;52.254;4.490;2023-08-06T07:03:38;5.10;;;0.30;;
31004;SDS011;17676;52.254;4.490;2023-08-06T07:06:04;4.68;;;0.43;;
31004;SDS011;17676;52.254;4.490;2023-08-06T07:08:30;5.15;;;0.30;;
31004;SDS011;17676;52.254;4.490;2023-08-06T07:11:05;5.03;;;0.38;;
31004;SDS011;17676;52.254;4.490;2023-08-06T07:13:32;2.72;;;0.30;;
31004;SDS011;17676;52.254;4.490;2023-08-06T07:15:58;6.18;;;0.20;;
31004;SDS011;17676;52.254;4.490;2023-08-06T07:18:24;3.97;;;0.20;;
31004;SDS011;17676;52.254;4.490;2023-08-06T07:20:50;6.47;;;0.40;;
31004;SDS011;17676;52.254;4.490;2023-08-06T07:23:20;3.25;;;0.30;;
31004;SDS011;17676;52.254;4.490;2023-08-06T07:25:50;2.63;;;0.25;;
31004;SDS011;17676;52.254;4.490;2023-08-06T07:28:15;1.42;;;0.40;;
31004;SDS011;17676;52.254;4.490;2023-08-06T07:30:41;3.10;;;0.30;;
31004;SDS011;17676;52.254;4.490;2023-08-06T07:33:08;3.90;;;0.40;;
31004;SDS011;17676;52.254;4.490;2023-08-06T07:35:34;2.50;;;0.43;;
31004;SDS011;17676;52.254;4.490;2023-08-06T07:37:59;3.40;;;0.40;;
31004;SDS011;17676;52.254;4.490;2023-08-06T07:40:25;2.92;;;0.30;;
31004;SDS011;17676;52.254;4.490;2023-08-06T07:42:50;2.58;;;0.22;;
31004;SDS011;17676;52.254;4.490;2023-08-06T07:45:15;2.80;;;0.20;;
31004;SDS011;17676;52.254;4.490;2023-08-06T07:47:41;5.60;;;0.40;;
31004;SDS011;17676;52.254;4.490;2023-08-06T07:50:08;2.92;;;0.20;;
31004;SDS011;17676;52.254;4.490;2023-08-06T07:52:33;0.80;;;0.20;;
31004;SDS011;17676;52.254;4.490;2023-08-06T07:54:59;2.88;;;0.20;;
31004;SDS011;17676;52.254;4.490;2023-08-06T07:57:26;3.53;;;0.28;;
31004;SDS011;17676;52.254;4.490;2023-08-06T07:59:52;5.88;;;0.38;;
31004;SDS011;17676;52.254;4.490;2023-08-06T08:02:18;2.00;;;0.20;;
31004;SDS011;17676;52.254;4.490;2023-08-06T08:04:47;1.35;;;0.22;;
31004;SDS011;17676;52.254;4.490;2023-08-06T08:07:13;2.20;;;0.20;;
31004;SDS011;17676;52.254;4.490;2023-08-06T08:09:38;2.22;;;0.73;;
31004;SDS011;17676;52.254;4.490;2023-08-06T08:12:04;3.78;;;0.30;;
31004;SDS011;17676;52.254;4.490;2023-08-06T08:14:30;4.55;;;0.40;;
31004;SDS011;17676;52.254;4.490;2023-08-06T08:17:00;1.15;;;0.40;;
31004;SDS011;17676;52.254;4.490;2023-08-06T08:19:29;2.95;;;0.85;;
31004;SDS011;17676;52.254;4.490;2023-08-06T08:21:55;2.95;;;0.20;;
31004;SDS011;17676;52.254;4.490;2023-08-06T08:24:21;4.65;;;0.30;;
31004;SDS011;17676;52.254;4.490;2023-08-06T08:26:49;3.88;;;0.30;;
31004;SDS011;17676;52.254;4.490;2023-08-06T08:29:17;3.03;;;0.32;;
31004;SDS011;17676;52.254;4.490;2023-08-06T08:31:44;1.65;;;0.30;;
31004;SDS011;17676;52.254;4.490;2023-08-06T08:34:10;0.43;;;0.20;;
31004;SDS011;17676;52.254;4.490;2023-08-06T08:36:36;1.65;;;0.30;;
31004;SDS011;17676;52.254;4.490;2023-08-06T08:39:02;3.60;;;0.77;;
31004;SDS011;17676;52.254;4.490;2023-08-06T08:41:29;2.60;;;0.40;;
31004;SDS011;17676;52.254;4.490;2023-08-06T08:43:55;2.75;;;0.20;;
31004;SDS011;17676;52.254;4.490;2023-08-06T08:46:24;4.53;;;0.30;;
31004;SDS011;17676;52.254;4.490;2023-08-06T08:48:54;1.42;;;0.20;;
31004;SDS011;17676;52.254;4.490;2023-08-06T08:51:24;3.05;;;0.35;;
31004;SDS011;17676;52.254;4.490;2023-08-06T08:53:52;7.43;;;0.35;;
31004;SDS011;17676;52.254;4.490;2023-08-06T08:56:22;3.00;;;0.40;;
31004;SDS011;17676;52.254;4.490;2023-08-06T08:58:52;7.47;;;0.50;;
31004;SDS011;17676;52.254;4.490;2023-08-06T09:01:20;1.95;;;0.40;;
31004;SDS011;17676;52.254;4.490;2023-08-06T09:03:47;4.60;;;0.45;;
31004;SDS011;17676;52.254;4.490;2023-08-06T09:06:13;4.60;;;0.30;;
31004;SDS011;17676;52.254;4.490;2023-08-06T09:08:47;5.68;;;0.30;;
31004;SDS011;17676;52.254;4.490;2023-08-06T09:11:20;2.15;;;0.40;;
31004;SDS011;17676;52.254;4.490;2023-08-06T09:13:48;1.35;;;0.35;;
31004;SDS011;17676;52.254;4.490;2023-08-06T09:16:14;1.33;;;0.32;;
31004;SDS011;17676;52.254;4.490;2023-08-06T09:18:40;4.35;;;0.75;;
31004;SDS011;17676;52.254;4.490;2023-08-06T09:21:05;8.13;;;0.50;;
31004;SDS011;17676;52.254;4.490;2023-08-06T09:23:38;3.45;;;0.45;;
31004;SDS011;17676;52.254;4.490;2023-08-06T09:26:03;3.30;;;0.28;;
31004;SDS011;17676;52.254;4.490;2023-08-06T09:28:38;1.27;;;0.30;;
31004;SDS011;17676;52.254;4.490;2023-08-06T09:31:08;1.58;;;0.50;;
31004;SDS011;17676;52.254;4.490;2023-08-06T09:33:38;2.38;;;0.30;;
31004;SDS011;17676;52.254;4.490;2023-08-06T09:36:07;2.08;;;0.30;;
31004;SDS011;17676;52.254;4.490;2023-08-06T09:38:37;2.80;;;0.40;;
31004;SDS011;17676;52.254;4.490;2023-08-06T09:41:05;1.27;;;0.20;;
31004;SDS011;17676;52.254;4.490;2023-08-06T09:43:30;4.53;;;0.20;;
31004;SDS011;17676;52.254;4.490;2023-08-06T09:46:10;2.78;;;0.20;;
31004;SDS011;17676;52.254;4.490;2023-08-06T09:48:38;1.55;;;0.20;;
31004;SDS011;17676;52.254;4.490;2023-08-06T09:51:04;2.67;;;0.30;;
31004;SDS011;17676;52.254;4.490;2023-08-06T09:53:33;1.48;;;0.30;;
31004;SDS011;17676;52.254;4.490;2023-08-06T09:56:00;1.42;;;0.20;;
31004;SDS011;17676;52.254;4.490;2023-08-06T09:58:26;3.90;;;0.20;;
31004;SDS011;17676;52.254;4.490;2023-08-06T10:00:51;0.40;;;0.20;;
31004;SDS011;17676;52.254;4.490;2023-08-06T10:03:17;3.90;;;0.30;;
31004;SDS011;17676;52.254;4.490;2023-08-06T10:05:44;1.38;;;0.20;;
31004;SDS011;17676;52.254;4.490;2023-08-06T10:08:09;0.75;;;0.20;;
31004;SDS011;17676;52.254;4.490;2023-08-06T10:10:35;3.58;;;0.20;;
31004;SDS011;17676;52.254;4.490;2023-08-06T10:13:01;0.95;;;0.20;;
31004;SDS011;17676;52.254;4.490;2023-08-06T10:15:31;4.93;;;0.52;;
31004;SDS011;17676;52.254;4.490;2023-08-06T10:17:57;1.02;;;0.20;;
31004;SDS011;17676;52.254;4.490;2023-08-06T10:20:25;2.38;;;0.43;;
31004;SDS011;17676;52.254;4.490;2023-08-06T10:23:03;2.20;;;0.32;;
31004;SDS011;17676;52.254;4.490;2023-08-06T10:25:31;2.75;;;0.40;;
31004;SDS011;17676;52.254;4.490;2023-08-06T10:27:58;0.50;;;0.10;;
31004;SDS011;17676;52.254;4.490;2023-08-06T10:30:30;3.25;;;0.30;;
31004;SDS011;17676;52.254;4.490;2023-08-06T10:33:00;1.65;;;0.20;;
31004;SDS011;17676;52.254;4.490;2023-08-06T10:35:45;5.90;;;0.30;;
31004;SDS011;17676;52.254;4.490;2023-08-06T10:38:21;2.88;;;0.30;;
31004;SDS011;17676;52.254;4.490;2023-08-06T10:43:33;0.93;;;0.15;;
31004;SDS011;17676;52.254;4.490;2023-08-06T10:46:03;4.78;;;0.50;;
31004;SDS011;17676;52.254;4.490;2023-08-06T10:48:35;2.13;;;0.10;;
31004;SDS011;17676;52.254;4.490;2023-08-06T10:51:03;1.48;;;0.10;;
31004;SDS011;17676;52.254;4.490;2023-08-06T10:53:32;1.45;;;0.20;;
31004;SDS011;17676;52.254;4.490;2023-08-06T10:55:57;0.55;;;0.20;;
31004;SDS011;17676;52.254;4.490;2023-08-06T10:58:23;0.55;;;0.10;;
31004;SDS011;17676;52.254;4.490;2023-08-06T11:00:49;5.90;;;0.20;;
31004;SDS011;17676;52.254;4.490;2023-08-06T11:03:15;1.33;;;0.10;;
31004;SDS011;17676;52.254;4.490;2023-08-06T11:05:40;2.70;;;0.10;;
31004;SDS011;17676;52.254;4.490;2023-08-06T11:08:06;1.05;;;0.10;;
31004;SDS011;17676;52.254;4.490;2023-08-06T11:10:32;0.30;;;0.10;;
31004;SDS011;17676;52.254;4.490;2023-08-06T11:13:03;1.75;;;0.10;;
31004;SDS011;17676;52.254;4.490;2023-08-06T11:15:30;1.70;;;0.10;;
31004;SDS011;17676;52.254;4.490;2023-08-06T11:17:56;0.75;;;0.10;;
31004;SDS011;17676;52.254;4.490;2023-08-06T11:20:21;2.38;;;0.10;;
31004;SDS011;17676;52.254;4.490;2023-08-06T11:22:48;0.95;;;0.10;;
31004;SDS011;17676;52.254;4.490;2023-08-06T11:25:13;2.30;;;0.10;;
31004;SDS011;17676;52.254;4.490;2023-08-06T11:27:39;0.40;;;0.10;;
31004;SDS011;17676;52.254;4.490;2023-08-06T11:30:05;1.75;;;0.20;;
31004;SDS011;17676;52.254;4.490;2023-08-06T11:32:31;0.90;;;0.15;;
31004;SDS011;17676;52.254;4.490;2023-08-06T11:34:58;4.70;;;0.10;;
31004;SDS011;17676;52.254;4.490;2023-08-06T11:37:23;1.67;;;0.10;;
31004;SDS011;17676;52.254;4.490;2023-08-06T11:39:50;4.78;;;0.10;;
31004;SDS011;17676;52.254;4.490;2023-08-06T11:42:16;1.45;;;0.50;;
31004;SDS011;17676;52.254;4.490;2023-08-06T11:44:41;1.70;;;0.10;;
31004;SDS011;17676;52.254;4.490;2023-08-06T11:47:11;3.50;;;0.00;;
31004;SDS011;17676;52.254;4.490;2023-08-06T11:52:08;0.50;;;0.00;;
31004;SDS011;17676;52.254;4.490;2023-08-06T11:54:41;0.85;;;0.10;;
31004;SDS011;17676;52.254;4.490;2023-08-06T11:57:07;2.08;;;0.10;;
31004;SDS011;17676;52.254;4.490;2023-08-06T11:59:33;0.95;;;0.10;;
31004;SDS011;17676;52.254;4.490;2023-08-06T12:02:03;1.65;;;0.10;;
31004;SDS011;17676;52.254;4.490;2023-08-06T12:04:30;2.05;;;0.10;;
31004;SDS011;17676;52.254;4.490;2023-08-06T12:07:04;0.35;;;0.08;;
31004;SDS011;17676;52.254;4.490;2023-08-06T12:09:31;0.30;;;0.10;;
31004;SDS011;17676;52.254;4.490;2023-08-06T12:11:56;0.20;;;0.00;;
31004;SDS011;17676;52.254;4.490;2023-08-06T12:14:21;2.83;;;0.10;;
31004;SDS011;17676;52.254;4.490;2023-08-06T12:16:48;1.13;;;0.45;;
31004;SDS011;17676;52.254;4.490;2023-08-06T12:19:14;2.65;;;0.10;;
31004;SDS011;17676;52.254;4.490;2023-08-06T12:21:39;2.70;;;0.10;;
31004;SDS011;17676;52.254;4.490;2023-08-06T12:24:05;0.55;;;0.10;;
31004;SDS011;17676;52.254;4.490;2023-08-06T12:26:32;2.78;;;0.15;;
31004;SDS011;17676;52.254;4.490;2023-08-06T12:28:58;1.73;;;0.20;;
31004;SDS011;17676;52.254;4.490;2023-08-06T12:31:24;2.17;;;0.10;;
31004;SDS011;17676;52.254;4.490;2023-08-06T12:33:49;1.02;;;0.10;;
31004;SDS011;17676;52.254;4.490;2023-08-06T12:36:14;1.00;;;0.10;;
31004;SDS011;17676;52.254;4.490;2023-08-06T12:38:40;0.57;;;0.10;;
31004;SDS011;17676;52.254;4.490;2023-08-06T12:41:05;1.20;;;0.10;;
31004;SDS011;17676;52.254;4.490;2023-08-06T12:43:31;3.60;;;0.20;;
31004;SDS011;17676;52.254;4.490;2023-08-06T12:45:56;1.15;;;0.10;;
31004;SDS011;17676;52.254;4.490;2023-08-06T12:48:21;0.68;;;0.10;;
31004;SDS011;17676;52.254;4.490;2023-08-06T12:50:47;5.28;;;0.10;;
31004;SDS011;17676;52.254;4.490;2023-08-06T12:53:14;3.50;;;0.20;;
31004;SDS011;17676;52.254;4.490;2023-08-06T12:55:39;5.38;;;0.15;;
31004;SDS011;17676;52.254;4.490;2023-08-06T12:58:05;2.40;;;0.30;;
31004;SDS011;17676;52.254;4.490;2023-08-06T13:00:31;6.15;;;0.20;;
31004;SDS011;17676;52.254;4.490;2023-08-06T13:02:57;4.63;;;0.35;;
31004;SDS011;17676;52.254;4.490;2023-08-06T13:05:22;6.65;;;0.20;;
31004;SDS011;17676;52.254;4.490;2023-08-06T13:07:48;3.38;;;0.22;;
31004;SDS011;17676;52.254;4.490;2023-08-06T13:10:13;1.08;;;0.10;;
31004;SDS011;17676;52.254;4.490;2023-08-06T13:12:38;1.42;;;0.10;;
31004;SDS011;17676;52.254;4.490;2023-08-06T13:15:04;6.00;;;0.20;;
31004;SDS011;17676;52.254;4.490;2023-08-06T13:17:30;2.55;;;0.10;;
31004;SDS011;17676;52.254;4.490;2023-08-06T13:19:55;3.72;;;0.20;;
31004;SDS011;17676;52.254;4.490;2023-08-06T13:22:21;1.98;;;0.13;;
31004;SDS011;17676;52.254;4.490;2023-08-06T13:24:46;1.02;;;0.20;;
31004;SDS011;17676;52.254;4.490;2023-08-06T13:27:11;4.82;;;0.28;;
31004;SDS011;17676;52.254;4.490;2023-08-06T13:29:37;7.65;;;0.43;;
31004;SDS011;17676;52.254;4.490;2023-08-06T13:32:02;6.85;;;0.35;;
31004;SDS011;17676;52.254;4.490;2023-08-06T13:34:28;6.43;;;0.22;;
31004;SDS011;17676;52.254;4.490;2023-08-06T13:36:53;10.13;;;0.30;;
31004;SDS011;17676;52.254;4.490;2023-08-06T13:39:19;9.32;;;0.30;;
31004;SDS011;17676;52.254;4.490;2023-08-06T13:41:44;8.20;;;0.20;;
31004;SDS011;17676;52.254;4.490;2023-08-06T13:44:10;6.00;;;0.40;;
31004;SDS011;17676;52.254;4.490;2023-08-06T13:46:36;8.77;;;0.40;;
31004;SDS011;17676;52.254;4.490;2023-08-06T13:49:01;5.50;;;0.60;;
31004;SDS011;17676;52.254;4.490;2023-08-06T13:51:27;5.38;;;0.30;;
31004;SDS011;17676;52.254;4.490;2023-08-06T13:53:53;11.00;;;0.40;;
31004;SDS011;17676;52.254;4.490;2023-08-06T13:56:19;7.22;;;0.20;;
31004;SDS011;17676;52.254;4.490;2023-08-06T13:58:44;4.93;;;0.20;;
31004;SDS011;17676;52.254;4.490;2023-08-06T14:01:11;5.32;;;0.20;;
31004;SDS011;17676;52.254;4.490;2023-08-06T14:03:36;3.58;;;0.22;;
31004;SDS011;17676;52.254;4.490;2023-08-06T14:06:02;11.00;;;0.50;;
31004;SDS011;17676;52.254;4.490;2023-08-06T14:08:27;5.68;;;0.20;;
31004;SDS011;17676;52.254;4.490;2023-08-06T14:10:53;8.60;;;0.40;;
31004;SDS011;17676;52.254;4.490;2023-08-06T14:13:19;4.75;;;0.20;;
31004;SDS011;17676;52.254;4.490;2023-08-06T14:15:44;7.32;;;0.30;;
31004;SDS011;17676;52.254;4.490;2023-08-06T14:18:12;3.50;;;0.20;;
31004;SDS011;17676;52.254;4.490;2023-08-06T14:20:39;5.35;;;0.20;;
31004;SDS011;17676;52.254;4.490;2023-08-06T14:23:04;5.40;;;0.20;;
31004;SDS011;17676;52.254;4.490;2023-08-06T14:25:30;9.90;;;0.60;;
31004;SDS011;17676;52.254;4.490;2023-08-06T14:27:55;10.18;;;1.48;;
31004;SDS011;17676;52.254;4.490;2023-08-06T14:30:21;8.88;;;0.60;;
31004;SDS011;17676;52.254;4.490;2023-08-06T14:32:46;7.60;;;0.50;;
31004;SDS011;17676;52.254;4.490;2023-08-06T14:35:12;9.60;;;0.50;;
31004;SDS011;17676;52.254;4.490;2023-08-06T14:37:37;11.07;;;0.45;;
31004;SDS011;17676;52.254;4.490;2023-08-06T14:40:04;5.07;;;0.30;;
31004;SDS011;17676;52.254;4.490;2023-08-06T14:42:30;6.47;;;0.20;;
31004;SDS011;17676;52.254;4.490;2023-08-06T14:44:55;12.50;;;0.52;;
31004;SDS011;17676;52.254;4.490;2023-08-06T14:47:21;9.18;;;0.57;;
31004;SDS011;17676;52.254;4.490;2023-08-06T14:49:46;50.63;;;8.75;;